Observation data for Tulia on 08/14/2020      Previous  Date  Next       Current Mesonet Observations  Soil Data  Daily Summary Page  Observations in Plain Language
KTIS 140500Z 02005KT 28/16 A3001 RMK A01 T02760155  RH  050%=      5-min Rain = 0
KTIS 140505Z 04006KT 28/15 A3001 RMK A01 T02770154  RH  050%=      5-min Rain = 0
KTIS 140510Z 05006KT 27/16 A3001 RMK A01 T02730155  RH  051%=      5-min Rain = 0
KTIS 140515Z 06007KT 27/16 A3001 RMK A01 T02700157  RH  052%=      5-min Rain = 0
KTIS 140520Z 06007KT 27/16 A3001 RMK A01 T02670157  RH  053%=      5-min Rain = 0
KTIS 140525Z 06007KT 26/16 A3001 RMK A01 T02640157  RH  054%=      5-min Rain = 0
KTIS 140530Z 05006KT 26/16 A3001 RMK A01 T02600156  RH  055%=      5-min Rain = 0
KTIS 140535Z 05005KT 26/16 A3001 RMK A01 T02570155  RH  056%=      5-min Rain = 0
KTIS 140540Z 01004KT 26/16 A3001 RMK A01 T02560157  RH  057%=      5-min Rain = 0
KTIS 140545Z 05004KT 26/16 A3001 RMK A01 T02580156  RH  056%=      5-min Rain = 0
KTIS 140550Z 10002KT 26/16 A3001 RMK A01 T02560162  RH  059%=      5-min Rain = 0
KTIS 140555Z 07001G8KT 25/16 A3002 RMK A01 T02520159  RH  059%=      5-min Rain = 0
KTIS 140600Z 30005KT 25/16 A3002 RMK A01 T02490158  RH  059%=      5-min Rain = 0
KTIS 140605Z 01002KT 25/16 A3002 RMK A01 T02510157  RH  059%=      5-min Rain = 0
KTIS 140610Z 04002KT 25/16 A3002 RMK A01 T02520157  RH  058%=      5-min Rain = 0
KTIS 140615Z 05001KT 25/16 A3002 RMK A01 T02540160  RH  059%=      5-min Rain = 0
KTIS 140620Z 08002KT 25/17 A3002 RMK A01 T02490165  RH  063%=      5-min Rain = 0
KTIS 140625Z 08004KT 24/16 A3002 RMK A01 T02440164  RH  064%=      5-min Rain = 0
KTIS 140630Z 07005KT 25/16 A3002 RMK A01 T02480158  RH  060%=      5-min Rain = 0
KTIS 140635Z 06005KT 25/15 A3002 RMK A01 T02450152  RH  058%=      5-min Rain = 0
KTIS 140640Z 07007KT 24/15 A3002 RMK A01 T02430154  RH  060%=      5-min Rain = 0
KTIS 140645Z 06006KT 24/16 A3002 RMK A01 T02380155  RH  062%=      5-min Rain = 0
KTIS 140650Z 09007KT 23/16 A3002 RMK A01 T02330159  RH  066%=      5-min Rain = 0
KTIS 140655Z 10007KT 23/16 A3002 RMK A01 T02340159  RH  066%=      5-min Rain = 0
KTIS 140700Z 08006KT 24/16 A3002 RMK A01 T02350158  RH  065%=      5-min Rain = 0
KTIS 140705Z 08005KT 24/16 A3002 RMK A01 T02350156  RH  064%=      5-min Rain = 0
KTIS 140710Z 08006KT 23/16 A3001 RMK A01 T02330156  RH  065%=      5-min Rain = 0
KTIS 140715Z 09005KT 24/16 A3001 RMK A01 T02350157  RH  064%=      5-min Rain = 0
KTIS 140720Z 09004KT 23/16 A3001 RMK A01 T02340157  RH  065%=      5-min Rain = 0
KTIS 140725Z 08003KT 23/15 A3001 RMK A01 T02330154  RH  064%=      5-min Rain = 0
KTIS 140730Z 07003KT 23/15 A3001 RMK A01 T02320154  RH  065%=      5-min Rain = 0
KTIS 140735Z 06004KT 23/16 A3001 RMK A01 T02300155  RH  066%=      5-min Rain = 0
KTIS 140740Z 06004KT 23/16 A3001 RMK A01 T02310157  RH  066%=      5-min Rain = 0
KTIS 140745Z 06003KT 23/16 A3001 RMK A01 T02300156  RH  066%=      5-min Rain = 0
KTIS 140750Z 05003KT 23/15 A3001 RMK A01 T02270153  RH  066%=      5-min Rain = 0
KTIS 140755Z 06003KT 22/15 A3001 RMK A01 T02240153  RH  067%=      5-min Rain = 0
KTIS 140800Z 06004KT 23/15 A30 RMK A01 T02250151  RH  066%=      5-min Rain = 0
KTIS 140805Z 07003KT 22/15 A3001 RMK A01 T02230151  RH  067%=      5-min Rain = 0
KTIS 140810Z 09003KT 22/15 A3001 RMK A01 T02240151  RH  066%=      5-min Rain = 0
KTIS 140815Z 09002KT 22/16 A3001 RMK A01 T02240155  RH  068%=      5-min Rain = 0
KTIS 140820Z 08004KT 23/16 A3001 RMK A01 T02280156  RH  067%=      5-min Rain = 0
KTIS 140825Z 06003KT 22/15 A3001 RMK A01 T02240154  RH  067%=      5-min Rain = 0
KTIS 140830Z 07004KT 22/15 A30 RMK A01 T02220154  RH  068%=      5-min Rain = 0
KTIS 140835Z 07004KT 22/15 A30 RMK A01 T02240152  RH  067%=      5-min Rain = 0
KTIS 140840Z 07004KT 23/15 A30 RMK A01 T02250154  RH  067%=      5-min Rain = 0
KTIS 140845Z 07005KT 23/16 A30 RMK A01 T02290155  RH  066%=      5-min Rain = 0
KTIS 140850Z 07004KT 23/16 A30 RMK A01 T02340157  RH  065%=      5-min Rain = 0
KTIS 140855Z 06004KT 23/15 A30 RMK A01 T02330154  RH  064%=      5-min Rain = 0
KTIS 140900Z 07004KT 23/15 A30 RMK A01 T02270146  RH  063%=      5-min Rain = 0
KTIS 140905Z 07004KT 23/15 A30 RMK A01 T02260151  RH  065%=      5-min Rain = 0
KTIS 140910Z 08004KT 23/15 A30 RMK A01 T02270154  RH  066%=      5-min Rain = 0
KTIS 140915Z 08005KT 23/15 A30 RMK A01 T02270151  RH  065%=      5-min Rain = 0
KTIS 140920Z 08005KT 23/16 A2999 RMK A01 T02280156  RH  067%=      5-min Rain = 0
KTIS 140925Z 08005KT 23/16 A2999 RMK A01 T02250159  RH  069%=      5-min Rain = 0
KTIS 140930Z 09005KT 22/16 A2999 RMK A01 T02230163  RH  072%=      5-min Rain = 0
KTIS 140935Z 09005KT 22/16 A2999 RMK A01 T02210163  RH  073%=      5-min Rain = 0
KTIS 140940Z 10005KT 22/16 A2999 RMK A01 T02180162  RH  074%=      5-min Rain = 0
KTIS 140945Z 11004KT 22/16 A2999 RMK A01 T02160164  RH  076%=      5-min Rain = 0
KTIS 140950Z 13004KT 21/17 A2999 RMK A01 T02120165  RH  078%=      5-min Rain = 0
KTIS 140955Z 14002KT 21/16 A2999 RMK A01 T02090164  RH  079%=      5-min Rain = 0
KTIS 141000Z 14002KT 21/16 A2999 RMK A01 T02100162  RH  078%=      5-min Rain = 0
KTIS 141005Z 13002KT 21/16 A2999 RMK A01 T02110161  RH  077%=      5-min Rain = 0
KTIS 141010Z 13001KT 21/16 A2999 RMK A01 T02100159  RH  076%=      5-min Rain = 0
KTIS 141015Z 13001KT 21/16 A2999 RMK A01 T02060157  RH  077%=      5-min Rain = 0
KTIS 141020Z 13000KT 21/16 A2999 RMK A01 T02050156  RH  077%=      5-min Rain = 0
KTIS 141025Z 12000KT 20/15 A2999 RMK A01 T01980154  RH  079%=      5-min Rain = 0
KTIS 141030Z 34001KT 19/15 A2999 RMK A01 T01930151  RH  081%=      5-min Rain = 0
KTIS 141035Z 33001KT 19/15 A2999 RMK A01 T01920149  RH  079%=      5-min Rain = 0
KTIS 141040Z 20001KT 19/15 A2999 RMK A01 T01910146  RH  078%=      5-min Rain = 0
KTIS 141045Z 20003KT 19/15 A2999 RMK A01 T01930146  RH  078%=      5-min Rain = 0
KTIS 141050Z 21004KT 20/15 A2999 RMK A01 T01960146  RH  076%=      5-min Rain = 0
KTIS 141055Z 21005KT 20/15 A2999 RMK A01 T02000145  RH  074%=      5-min Rain = 0
KTIS 141100Z 21006KT 21/14 A2999 RMK A01 T02120140  RH  066%=      5-min Rain = 0
KTIS 141105Z 21007KT 22/14 A30 RMK A01 T02190137  RH  062%=      5-min Rain = 0
KTIS 141110Z 21008KT 22/14 A30 RMK A01 T02210135  RH  060%=      5-min Rain = 0
KTIS 141115Z 22008KT 22/13 A30 RMK A01 T02220134  RH  060%=      5-min Rain = 0
KTIS 141120Z 23008KT 22/14 A30 RMK A01 T02200136  RH  061%=      5-min Rain = 0
KTIS 141125Z 24009KT 22/14 A30 RMK A01 T02230136  RH  060%=      5-min Rain = 0
KTIS 141130Z 24009KT 22/14 A30 RMK A01 T02240137  RH  060%=      5-min Rain = 0
KTIS 141135Z 24008KT 23/14 A30 RMK A01 T02260136  RH  059%=      5-min Rain = 0
KTIS 141140Z 25008KT 23/14 A30 RMK A01 T02270137  RH  059%=      5-min Rain = 0
KTIS 141145Z 25008KT 23/14 A3001 RMK A01 T02280136  RH  059%=      5-min Rain = 0
KTIS 141150Z 25009KT 23/14 A3001 RMK A01 T02280137  RH  059%=      5-min Rain = 0
KTIS 141155Z 25009KT 23/14 A3001 RMK A01 T02270138  RH  060%=      5-min Rain = 0
KTIS 141200Z 26010KT 23/14 A3002 RMK A01 T02250140  RH  061%=      5-min Rain = 0
KTIS 141205Z 26008KT 22/14 A3002 RMK A01 T02240141  RH  062%=      5-min Rain = 0
KTIS 141210Z 26007KT 22/14 A3002 RMK A01 T02210142  RH  063%=      5-min Rain = 0
KTIS 141215Z 25007KT 22/14 A3002 RMK A01 T02200143  RH  064%=      5-min Rain = 0
KTIS 141220Z 26007KT 22/14 A3002 RMK A01 T02180144  RH  066%=      5-min Rain = 0
KTIS 141225Z 29008KT 21/15 A3002 RMK A01 T02120148  RH  070%=      5-min Rain = 0
KTIS 141230Z 27006KT 21/15 A3002 RMK A01 T02060153  RH  075%=      5-min Rain = 0
KTIS 141235Z 28007KT 20/16 A3003 RMK A01 T02040157  RH  078%=      5-min Rain = 0
KTIS 141240Z 28005KT 20/16 A3003 RMK A01 T02020159  RH  080%=      5-min Rain = 0
KTIS 141245Z 28006KT 20/16 A3003 RMK A01 T02040161  RH  080%=      5-min Rain = 0
KTIS 141250Z 29005KT 21/16 A3003 RMK A01 T02060163  RH  080%=      5-min Rain = 0
KTIS 141255Z 29004KT 21/17 A3003 RMK A01 T02080165  RH  080%=      5-min Rain = 0
KTIS 141300Z 29005KT 21/17 A3003 RMK A01 T02130167  RH  079%=      5-min Rain = 0
KTIS 141305Z 30006KT 22/17 A3003 RMK A01 T02170167  RH  077%=      5-min Rain = 0
KTIS 141310Z 30006KT 22/17 A3003 RMK A01 T02200166  RH  075%=      5-min Rain = 0
KTIS 141315Z 30005KT 22/17 A3003 RMK A01 T02240167  RH  074%=      5-min Rain = 0
KTIS 141320Z 31007KT 23/17 A3003 RMK A01 T02270167  RH  073%=      5-min Rain = 0
KTIS 141325Z 31007KT 23/17 A3003 RMK A01 T02290168  RH  072%=      5-min Rain = 0
KTIS 141330Z 32006KT 23/17 A3003 RMK A01 T02310170  RH  072%=      5-min Rain = 0
KTIS 141335Z 32006KT 24/17 A3003 RMK A01 T02360171  RH  070%=      5-min Rain = 0
KTIS 141340Z 32006KT 24/17 A3003 RMK A01 T02380170  RH  069%=      5-min Rain = 0
KTIS 141345Z 31007KT 24/17 A3003 RMK A01 T02420172  RH  068%=      5-min Rain = 0
KTIS 141350Z 30006KT 25/17 A3003 RMK A01 T02460173  RH  067%=      5-min Rain = 0
KTIS 141355Z 30007KT 25/17 A3003 RMK A01 T02510174  RH  065%=      5-min Rain = 0
KTIS 141400Z 30006KT 26/18 A3003 RMK A01 T02550175  RH  064%=      5-min Rain = 0
KTIS 141405Z 29004KT 26/18 A3003 RMK A01 T02580175  RH  063%=      5-min Rain = 0
KTIS 141410Z 27004KT 26/18 A3003 RMK A01 T02620176  RH  062%=      5-min Rain = 0
KTIS 141415Z 27004KT 27/18 A3003 RMK A01 T02650176  RH  061%=      5-min Rain = 0
KTIS 141420Z 28005KT 27/18 A3003 RMK A01 T02680176  RH  060%=      5-min Rain = 0
KTIS 141425Z 27004KT 27/18 A3003 RMK A01 T02720178  RH  060%=      5-min Rain = 0
KTIS 141430Z 26005KT 28/18 A3003 RMK A01 T02750176  RH  058%=      5-min Rain = 0
KTIS 141435Z 26006KT 28/18 A3003 RMK A01 T02790175  RH  056%=      5-min Rain = 0
KTIS 141440Z 27007KT 28/17 A3003 RMK A01 T02820174  RH  055%=      5-min Rain = 0
KTIS 141445Z 27007KT 29/17 A3003 RMK A01 T02850174  RH  054%=      5-min Rain = 0
KTIS 141450Z 27007KT 29/17 A3003 RMK A01 T02900171  RH  051%=      5-min Rain = 0
KTIS 141455Z 28007KT 29/17 A3003 RMK A01 T02940171  RH  050%=      5-min Rain = 0
KTIS 141500Z 27009KT 30/16 A3003 RMK A01 T03000163  RH  046%=      5-min Rain = 0
KTIS 141505Z 28009KT 30/16 A3003 RMK A01 T03030157  RH  043%=      5-min Rain = 0
KTIS 141510Z 27009KT 31/15 A3003 RMK A01 T03060154  RH  042%=      5-min Rain = 0
KTIS 141515Z 26009KT 31/15 A3003 RMK A01 T03090152  RH  040%=      5-min Rain = 0
KTIS 141520Z 26009KT 31/15 A3003 RMK A01 T03120154  RH  040%=      5-min Rain = 0
KTIS 141525Z 25009KT 32/16 A3003 RMK A01 T03150155  RH  040%=      5-min Rain = 0
KTIS 141530Z 26007KT 32/16 A3003 RMK A01 T03160157  RH  040%=      5-min Rain = 0
KTIS 141535Z 27010KT 32/15 A3003 RMK A01 T03170154  RH  039%=      5-min Rain = 0
KTIS 141540Z 27009KT 32/16 A3003 RMK A01 T03190155  RH  039%=      5-min Rain = 0
KTIS 141545Z 26009KT 32/15 A3003 RMK A01 T03230153  RH  038%=      5-min Rain = 0
KTIS 141550Z 27008KT 33/15 A3003 RMK A01 T03280153  RH  037%=      5-min Rain = 0
KTIS 141555Z 27010KT 33/15 A3003 RMK A01 T03300147  RH  035%=      5-min Rain = 0
KTIS 141600Z 26010KT 33/15 A3003 RMK A01 T03330146  RH  034%=      5-min Rain = 0
KTIS 141605Z 26010KT 34/15 A3003 RMK A01 T03350148  RH  034%=      5-min Rain = 0
KTIS 141610Z 26010KT 34/15 A3003 RMK A01 T03350145  RH  033%=      5-min Rain = 0
KTIS 141615Z 27010KT 34/14 A3003 RMK A01 T03380137  RH  031%=      5-min Rain = 0
KTIS 141620Z 27009KT 34/14 A3003 RMK A01 T03440142  RH  031%=      5-min Rain = 0
KTIS 141625Z 28009KT 35/14 A3003 RMK A01 T03480140  RH  030%=      5-min Rain = 0
KTIS 141630Z 27007KT 35/14 A3003 RMK A01 T03500141  RH  030%=      5-min Rain = 0
KTIS 141635Z 26008KT 35/14 A3003 RMK A01 T03540140  RH  029%=      5-min Rain = 0
KTIS 141640Z 26008KT 35/14 A3003 RMK A01 T03540137  RH  028%=      5-min Rain = 0
KTIS 141645Z 27008KT 36/14 A3003 RMK A01 T03570137  RH  028%=      5-min Rain = 0
KTIS 141650Z 26008KT 36/14 A3003 RMK A01 T03620141  RH  028%=      5-min Rain = 0
KTIS 141655Z 24008KT 36/13 A3003 RMK A01 T03640131  RH  026%=      5-min Rain = 0
KTIS 141700Z 24009KT 37/13 A3003 RMK A01 T03680126  RH  024%=      5-min Rain = 0
KTIS 141705Z 25009KT 37/12 A3003 RMK A01 T03690122  RH  024%=      5-min Rain = 0
KTIS 141710Z 24010G15KT 37/14 A3003 RMK A01 T03680135  RH  026%=      5-min Rain = 0
KTIS 141715Z 23011G16KT 37/14 A3003 RMK A01 T03690144  RH  027%=      5-min Rain = 0
KTIS 141720Z 22011KT 37/14 A3003 RMK A01 T03670142  RH  027%=      5-min Rain = 0
KTIS 141725Z 23010KT 37/14 A3003 RMK A01 T03670138  RH  027%=      5-min Rain = 0
KTIS 141730Z 22011G17KT 37/14 A3003 RMK A01 T03650139  RH  027%=      5-min Rain = 0
KTIS 141735Z 24010G15KT 37/14 A3003 RMK A01 T03680137  RH  026%=      5-min Rain = 0
KTIS 141740Z 22010G16KT 37/13 A3003 RMK A01 T03680131  RH  025%=      5-min Rain = 0
KTIS 141745Z 22010KT 37/13 A3003 RMK A01 T03720130  RH  025%=      5-min Rain = 0
KTIS 141750Z 21011KT 37/13 A3002 RMK A01 T03730131  RH  025%=      5-min Rain = 0
KTIS 141755Z 23009KT 37/12 A3002 RMK A01 T03730121  RH  023%=      5-min Rain = 0
KTIS 141800Z 22008KT 37/12 A3002 RMK A01 T03730123  RH  023%=      5-min Rain = 0
KTIS 141805Z 25008KT 37/13 A3002 RMK A01 T03740126  RH  024%=      5-min Rain = 0
KTIS 141810Z 26008KT 38/12 A3002 RMK A01 T03760124  RH  023%=      5-min Rain = 0
KTIS 141815Z 22008G15KT 38/12 A3002 RMK A01 T03770124  RH  023%=      5-min Rain = 0
KTIS 141820Z 22010KT 38/12 A3002 RMK A01 T03790123  RH  023%=      5-min Rain = 0
KTIS 141825Z 23006G12KT 38/12 A3001 RMK A01 T03760117  RH  022%=      5-min Rain = 0
KTIS 141830Z 21009G16KT 38/12 A3001 RMK A01 T03790117  RH  022%=      5-min Rain = 0
KTIS 141835Z 22009G14KT 38/11 A3001 RMK A01 T03820113  RH  021%=      5-min Rain = 0
KTIS 141840Z 20008G15KT 38/11 A3001 RMK A01 T03830112  RH  021%=      5-min Rain = 0
KTIS 141845Z 23008KT 39/11 A30 RMK A01 T03880112  RH  020%=      5-min Rain = 0
KTIS 141850Z 23008G13KT 39/11 A30 RMK A01 T03850107  RH  020%=      5-min Rain = 0
KTIS 141855Z 22005G10KT 38/10 A30 RMK A01 T03820102  RH  019%=      5-min Rain = 0
KTIS 141900Z 23007G12KT 38/11 A30 RMK A01 T03810105  RH  020%=      5-min Rain = 0
KTIS 141905Z 25010KT 38/10 A30 RMK A01 T03790103  RH  020%=      5-min Rain = 0
KTIS 141910Z 25007G17KT 38/10 A30 RMK A01 T03760100  RH  019%=      5-min Rain = 0
KTIS 141915Z 20006KT 38/11 A30 RMK A01 T03770105  RH  020%=      5-min Rain = 0
KTIS 141920Z 23007G12KT 39/11 A30 RMK A01 T03850109  RH  020%=      5-min Rain = 0
KTIS 141925Z 27006G12KT 39/11 A2999 RMK A01 T03880106  RH  019%=      5-min Rain = 0
KTIS 141930Z 24005KT 39/11 A2999 RMK A01 T03870110  RH  020%=      5-min Rain = 0
KTIS 141935Z 22007G13KT 39/11 A2998 RMK A01 T03850107  RH  020%=      5-min Rain = 0
KTIS 141940Z 23009G15KT 39/11 A2998 RMK A01 T03920107  RH  019%=      5-min Rain = 0
KTIS 141945Z 22009G14KT 39/11 A2998 RMK A01 T03940109  RH  019%=      5-min Rain = 0
KTIS 141950Z 26010KT 40/11 A2998 RMK A01 T03990107  RH  018%=      5-min Rain = 0
KTIS 141955Z 27008KT 40/10 A2998 RMK A01 T03950102  RH  018%=      5-min Rain = 0
KTIS 142000Z 31006G11KT 39/11 A2998 RMK A01 T03940108  RH  019%=      5-min Rain = 0
KTIS 142005Z 36003G8KT 40/11 A2998 RMK A01 T03950111  RH  019%=      5-min Rain = 0
KTIS 142010Z 02005G10KT 39/11 A2998 RMK A01 T03910107  RH  019%=      5-min Rain = 0
KTIS 142015Z 05007G13KT 38/11 A2997 RMK A01 T03750108  RH  021%=      5-min Rain = 0
KTIS 142020Z 05007G12KT 37/10 A2997 RMK A01 T03720103  RH  020%=      5-min Rain = 0
KTIS 142025Z 04011G18KT 37/10 A2997 RMK A01 T03670104  RH  021%=      5-min Rain = 0
KTIS 142030Z 05016G23KT 35/12 A2996 RMK A01 T03510115  RH  025%=      5-min Rain = 0
KTIS 142035Z 05016G24KT 34/11 A2996 RMK A01 T03420109  RH  025%=      5-min Rain = 0
KTIS 142040Z 05011G16KT 35/10 A2997 RMK A01 T03450102  RH  024%=      5-min Rain = 0
KTIS 142045Z 07014G20KT 35/11 A2996 RMK A01 T03460110  RH  025%=      5-min Rain = 0
KTIS 142050Z 07013G18KT 35/12 A2996 RMK A01 T03510115  RH  025%=      5-min Rain = 0
KTIS 142055Z 08011KT 35/11 A2996 RMK A01 T03460109  RH  025%=      5-min Rain = 0
KTIS 142100Z 08011KT 34/11 A2996 RMK A01 T03400110  RH  025%=      5-min Rain = 0
KTIS 142105Z 10015G22KT 34/11 A2995 RMK A01 T03410106  RH  025%=      5-min Rain = 0
KTIS 142110Z 10016G22KT 35/11 A2995 RMK A01 T03480108  RH  024%=      5-min Rain = 0
KTIS 142115Z 11014G19KT 35/11 A2995 RMK A01 T03460109  RH  025%=      5-min Rain = 0
KTIS 142120Z 11013KT 34/11 A2995 RMK A01 T03430109  RH  025%=      5-min Rain = 0
KTIS 142125Z 10014KT 35/11 A2995 RMK A01 T03460105  RH  024%=      5-min Rain = 0
KTIS 142130Z 08013KT 35/10 A2994 RMK A01 T03510098  RH  022%=      5-min Rain = 0
KTIS 142135Z 07012G17KT 35/10 A2994 RMK A01 T03500102  RH  023%=      5-min Rain = 0
KTIS 142140Z 09013G21KT 35/10 A2995 RMK A01 T03520102  RH  023%=      5-min Rain = 0
KTIS 142145Z 10016KT 35/10 A2994 RMK A01 T03540102  RH  022%=      5-min Rain = 0
KTIS 142150Z 09019G25KT 36/10 A2994 RMK A01 T03600098  RH  021%=      5-min Rain = 0
KTIS 142155Z 09019G24KT 36/09 A2994 RMK A01 T03560094  RH  021%=      5-min Rain = 0
KTIS 142200Z 09018KT 36/09 A2994 RMK A01 T03560092  RH  021%=      5-min Rain = 0
KTIS 142205Z 09017KT 36/09 A2994 RMK A01 T03560088  RH  020%=      5-min Rain = 0
KTIS 142210Z 09017G24KT 36/09 A2994 RMK A01 T03590090  RH  020%=      5-min Rain = 0
KTIS 142215Z 10021G26KT 36/09 A2995 RMK A01 T03580088  RH  020%=      5-min Rain = 0
KTIS 142220Z 09019G24KT 35/09 A2995 RMK A01 T03530090  RH  021%=      5-min Rain = 0
KTIS 142225Z 07021G26KT 35/09 A2995 RMK A01 T03500089  RH  021%=      5-min Rain = 0
KTIS 142230Z 07019KT 34/10 A2996 RMK A01 T03430096  RH  023%=      5-min Rain = 0
KTIS 142235Z 08019KT 35/10 A2996 RMK A01 T03460099  RH  023%=      5-min Rain = 0
KTIS 142240Z 07020KT 34/10 A2996 RMK A01 T03400096  RH  023%=      5-min Rain = 0
KTIS 142245Z 08019G24KT 34/09 A2996 RMK A01 T03370094  RH  023%=      5-min Rain = 0
KTIS 142250Z 08020G25KT 33/10 A2997 RMK A01 T03330096  RH  024%=      5-min Rain = 0
KTIS 142255Z 07019G25KT 33/10 A2997 RMK A01 T03250099  RH  026%=      5-min Rain = 0
KTIS 142300Z 07025G33KT 32/10 A2997 RMK A01 T03160103  RH  028%=      5-min Rain = 0
KTIS 142305Z 07022G31KT 31/11 A2998 RMK A01 T03090105  RH  029%=      5-min Rain = 0
KTIS 142310Z 07019KT 31/11 A2999 RMK A01 T03070105  RH  030%=      5-min Rain = 0
KTIS 142315Z 07019G24KT 31/10 A30 RMK A01 T03060101  RH  029%=      5-min Rain = 0
KTIS 142320Z 06020G25KT 30/10 A3001 RMK A01 T03030100  RH  029%=      5-min Rain = 0
KTIS 142325Z 06022G27KT 28/12 A3001 RMK A01 T02840121  RH  038%=      5-min Rain = 0
KTIS 142330Z 06020KT 25/14 A3001 RMK A01 T02530142  RH  052%=      5-min Rain = 0
KTIS 142335Z 07018G23KT 24/15 A3001 RMK A01 T02380151  RH  061%=      5-min Rain = 0.02
KTIS 142340Z 07019G26KT 24/15 A3001 RMK A01 T02350151  RH  062%=      5-min Rain = 0
KTIS 142345Z 07018KT 24/15 A3001 RMK A01 T02360154  RH  063%=      5-min Rain = 0
KTIS 142350Z 07019KT 24/15 A3001 RMK A01 T02430147  RH  057%=      5-min Rain = 0
KTIS 142355Z 08017G22KT 25/15 A30 RMK A01 T02480146  RH  055%=      5-min Rain = 0
KTIS 150000Z 10017G22KT 25/15 A30 RMK A01 T02490147  RH  056%=      5-min Rain = 0.01
KTIS 150005Z 10019G25KT 26/14 A2999 RMK A01 T02560137  RH  050%=      5-min Rain = 0
KTIS 150010Z 10017KT 25/15 A2998 RMK A01 T02480146  RH  056%=      5-min Rain = 0
KTIS 150015Z 10015KT 25/15 A2999 RMK A01 T02460147  RH  056%=      5-min Rain = 0
KTIS 150020Z 10013KT 25/15 A30 RMK A01 T02500148  RH  056%=      5-min Rain = 0
KTIS 150025Z 10011KT 25/15 A30 RMK A01 T02540147  RH  054%=      5-min Rain = 0
KTIS 150030Z 12011KT 25/15 A30 RMK A01 T02530151  RH  056%=      5-min Rain = 0
KTIS 150035Z 12011KT 25/15 A3001 RMK A01 T02530151  RH  056%=      5-min Rain = 0
KTIS 150040Z 11011KT 26/15 A3001 RMK A01 T02590148  RH  053%=      5-min Rain = 0
KTIS 150045Z 10011KT 26/14 A3001 RMK A01 T02610144  RH  051%=      5-min Rain = 0
KTIS 150050Z 11012KT 27/14 A3001 RMK A01 T02670138  RH  047%=      5-min Rain = 0
KTIS 150055Z 11011KT 27/14 A3001 RMK A01 T02690139  RH  047%=      5-min Rain = 0
KTIS 150100Z 13009KT 27/15 A3002 RMK A01 T02650148  RH  051%=      5-min Rain = 0
KTIS 150105Z 13009KT 26/14 A3002 RMK A01 T02630144  RH  050%=      5-min Rain = 0
KTIS 150110Z 13009KT 27/14 A3002 RMK A01 T02660139  RH  048%=      5-min Rain = 0
KTIS 150115Z 13009KT 27/13 A3002 RMK A01 T02670134  RH  046%=      5-min Rain = 0
KTIS 150120Z 12009KT 28/13 A3002 RMK A01 T02760125  RH  041%=      5-min Rain = 0
KTIS 150125Z 16009KT 28/13 A3003 RMK A01 T02770132  RH  043%=      5-min Rain = 0
KTIS 150130Z 17012KT 27/13 A3003 RMK A01 T02690133  RH  045%=      5-min Rain = 0
KTIS 150135Z 16012KT 28/12 A3003 RMK A01 T02750124  RH  041%=      5-min Rain = 0
KTIS 150140Z 16012KT 27/12 A3003 RMK A01 T02740123  RH  041%=      5-min Rain = 0
KTIS 150145Z 16013KT 27/12 A3003 RMK A01 T02730123  RH  041%=      5-min Rain = 0
KTIS 150150Z 17013KT 28/12 A3003 RMK A01 T02750119  RH  040%=      5-min Rain = 0
KTIS 150155Z 18013G18KT 28/12 A3003 RMK A01 T02750119  RH  039%=      5-min Rain = 0
KTIS 150200Z 18015KT 27/12 A3003 RMK A01 T02730119  RH  040%=      5-min Rain = 0
KTIS 150205Z 18014KT 27/12 A3003 RMK A01 T02720123  RH  041%=      5-min Rain = 0
KTIS 150210Z 18015KT 27/12 A3003 RMK A01 T02700123  RH  042%=      5-min Rain = 0
KTIS 150215Z 19013KT 27/13 A3003 RMK A01 T02680125  RH  043%=      5-min Rain = 0
KTIS 150220Z 19013KT 27/13 A3004 RMK A01 T02660125  RH  043%=      5-min Rain = 0
KTIS 150225Z 18013KT 27/13 A3004 RMK A01 T02680126  RH  043%=      5-min Rain = 0
KTIS 150230Z 19012KT 27/13 A3004 RMK A01 T02670126  RH  043%=      5-min Rain = 0
KTIS 150235Z 20012KT 27/13 A3005 RMK A01 T02650131  RH  045%=      5-min Rain = 0
KTIS 150240Z 19012KT 27/13 A3005 RMK A01 T02690127  RH  043%=      5-min Rain = 0
KTIS 150245Z 20011KT 27/13 A3005 RMK A01 T02710129  RH  043%=      5-min Rain = 0
KTIS 150250Z 21011KT 27/13 A3006 RMK A01 T02680130  RH  044%=      5-min Rain = 0
KTIS 150255Z 22011KT 27/13 A3007 RMK A01 T02700126  RH  043%=      5-min Rain = 0
KTIS 150300Z 20010KT 27/13 A3007 RMK A01 T02700128  RH  043%=      5-min Rain = 0
KTIS 150305Z 20007KT 26/14 A3007 RMK A01 T02610137  RH  048%=      5-min Rain = 0
KTIS 150310Z 20004KT 26/14 A3009 RMK A01 T02590135  RH  048%=      5-min Rain = 0
KTIS 150315Z 12001KT 26/13 A301 RMK A01 T02600133  RH  047%=      5-min Rain = 0
KTIS 150320Z 07005KT 26/14 A301 RMK A01 T02560142  RH  051%=      5-min Rain = 0
KTIS 150325Z 09010KT 25/15 A301 RMK A01 T02500149  RH  056%=      5-min Rain = 0
KTIS 150330Z 11014KT 25/15 A3009 RMK A01 T02500145  RH  055%=      5-min Rain = 0
KTIS 150335Z 11014KT 25/14 A3009 RMK A01 T02510143  RH  053%=      5-min Rain = 0
KTIS 150340Z 12014G19KT 26/14 A3008 RMK A01 T02580137  RH  049%=      5-min Rain = 0
KTIS 150345Z 13013KT 26/14 A3008 RMK A01 T02560141  RH  051%=      5-min Rain = 0
KTIS 150350Z 14013KT 26/13 A3007 RMK A01 T02580133  RH  048%=      5-min Rain = 0
KTIS 150355Z 16012KT 27/13 A3006 RMK A01 T02660130  RH  045%=      5-min Rain = 0
KTIS 150400Z 18010G15KT 27/13 A3005 RMK A01 T02660132  RH  045%=      5-min Rain = 0
KTIS 150405Z 20010KT 25/14 A3005 RMK A01 T02540139  RH  051%=      5-min Rain = 0
KTIS 150410Z 20010KT 25/14 A3004 RMK A01 T02510137  RH  051%=      5-min Rain = 0
KTIS 150415Z 20011KT 25/13 A3004 RMK A01 T02530134  RH  049%=      5-min Rain = 0
KTIS 150420Z 19012KT 26/12 A3003 RMK A01 T02640124  RH  043%=      5-min Rain = 0
KTIS 150425Z 20012KT 26/13 A3003 RMK A01 T02630126  RH  044%=      5-min Rain = 0
KTIS 150430Z 20011KT 27/12 A3003 RMK A01 T02670120  RH  042%=      5-min Rain = 0
KTIS 150435Z 21011KT 27/12 A3003 RMK A01 T02710118  RH  040%=      5-min Rain = 0
KTIS 150440Z 21010KT 27/12 A3003 RMK A01 T02730117  RH  039%=      5-min Rain = 0
KTIS 150445Z 21009KT 27/12 A3003 RMK A01 T02680120  RH  041%=      5-min Rain = 0
KTIS 150450Z 22008KT 27/12 A3003 RMK A01 T02690117  RH  040%=      5-min Rain = 0
KTIS 150455Z 22007KT 27/12 A3003 RMK A01 T02700116  RH  040%=      5-min Rain = 0

Page generated in 0.0089 seconds.